Time;durP1;ratioP1;P1;durP2;ratioP2;P2;SDS_P1;SDS_P2;PMS_P1;PMS_P2;Temp;Humidity;BMP_temperature;BMP_pressure;BME280_temperature;BME280_humidity;BME280_pressure;Samples;Min_cycle;Max_cycle;Signal;HPM_P1;HPM_P2
2022/01/01 00:00:16;;;;;;;9.30;5.85;;;11.00;99.90;;;;;;5044140;28;20123;-89
2022/01/01 00:02:42;;;;;;;14.93;8.65;;;11.00;99.90;;;;;;5075367;27;20031;-89
2022/01/01 00:05:13;;;;;;;9.80;5.38;;;10.90;99.90;;;;;;5074827;28;20085;-89
2022/01/01 00:07:39;;;;;;;13.32;7.47;;;10.90;99.90;;;;;;5074990;28;20749;-91
2022/01/01 00:10:07;;;;;;;17.00;10.00;;;10.90;99.90;;;;;;5093014;27;20070;-89
2022/01/01 00:12:42;;;;;;;7.20;4.75;;;10.90;99.90;;;;;;5073620;28;20036;-89
2022/01/01 00:15:08;;;;;;;14.32;6.47;;;10.90;99.90;;;;;;5060730;28;20496;-89
2022/01/01 00:17:33;;;;;;;27.50;8.75;;;10.80;99.90;;;;;;5087116;27;20130;-89
2022/01/01 00:19:59;;;;;;;13.57;7.88;;;10.80;99.90;;;;;;5103684;28;20036;-89
2022/01/01 00:22:25;;;;;;;8.35;5.50;;;10.80;99.90;;;;;;5080398;28;20039;-89
2022/01/01 00:24:50;;;;;;;8.45;6.18;;;10.70;99.90;;;;;;5060971;28;20043;-89
2022/01/01 00:27:26;;;;;;;41.58;17.20;;;10.70;99.90;;;;;;5063771;28;20051;-89
2022/01/01 00:29:52;;;;;;;29.35;12.90;;;10.70;99.90;;;;;;5071130;28;20036;-90
2022/01/01 00:32:17;;;;;;;3.50;2.33;;;10.60;99.90;;;;;;5072379;28;20133;-89
2022/01/01 00:34:43;;;;;;;19.02;11.38;;;10.60;99.90;;;;;;5071711;28;20046;-89
2022/01/01 00:37:09;;;;;;;3.38;2.22;;;10.50;99.90;;;;;;5063578;28;20119;-89
2022/01/01 00:43:15;;;;;;;7.68;3.55;;;10.50;99.90;;;;;;5094670;28;20042;-89
2022/01/01 00:45:41;;;;;;;18.55;5.50;;;10.50;99.90;;;;;;5059291;28;20044;-89
2022/01/01 00:48:06;;;;;;;3.35;2.80;;;10.50;99.90;;;;;;5076023;28;20669;-89
2022/01/01 00:50:32;;;;;;;18.13;7.25;;;10.60;99.90;;;;;;5059418;28;20031;-88
2022/01/01 00:53:02;;;;;;;3.05;2.10;;;10.60;99.90;;;;;;5059537;28;20473;-89
2022/01/01 00:55:27;;;;;;;2.05;1.85;;;10.60;99.90;;;;;;5059635;28;20539;-89
2022/01/01 00:57:53;;;;;;;7.60;3.58;;;10.70;99.90;;;;;;5059580;28;20044;-89
2022/01/01 01:00:18;;;;;;;3.85;2.08;;;10.70;99.90;;;;;;5059956;28;20047;-89
2022/01/01 01:02:44;;;;;;;7.80;3.83;;;10.70;99.90;;;;;;5059881;28;20044;-89
2022/01/01 01:05:09;;;;;;;22.85;11.13;;;10.80;99.90;;;;;;5059694;28;20040;-89
2022/01/01 01:07:35;;;;;;;11.23;5.70;;;10.70;99.90;;;;;;5076051;28;20047;-90
2022/01/01 01:10:02;;;;;;;4.43;3.35;;;10.70;99.90;;;;;;5067196;28;20035;-90
2022/01/01 01:12:37;;;;;;;14.48;6.50;;;10.70;99.90;;;;;;5067759;28;20118;-89
2022/01/01 01:15:04;;;;;;;12.75;6.47;;;10.80;99.90;;;;;;5076060;28;20036;-90
2022/01/01 01:17:30;;;;;;;15.68;7.03;;;10.80;99.90;;;;;;5060111;28;20031;-89
2022/01/01 01:19:56;;;;;;;16.20;7.20;;;10.80;99.90;;;;;;5057965;28;20028;-89
2022/01/01 01:22:26;;;;;;;8.32;5.53;;;10.80;99.90;;;;;;5061562;28;20048;-89
2022/01/01 01:25:06;;;;;;;6.32;2.78;;;10.80;99.90;;;;;;5076327;28;20036;-90
2022/01/01 01:27:33;;;;;;;7.88;4.50;;;10.90;99.90;;;;;;5079879;28;20086;-90
2022/01/01 01:30:00;;;;;;;5.75;4.15;;;10.80;99.90;;;;;;5064169;28;20032;-89
2022/01/01 01:32:26;;;;;;;23.83;11.05;;;10.90;99.90;;;;;;5066070;27;20146;-89
2022/01/01 01:34:54;;;;;;;30.35;10.10;;;10.90;99.90;;;;;;5081413;28;20562;-89
2022/01/01 01:37:23;;;;;;;9.60;4.55;;;11.00;99.90;;;;;;5077997;28;20088;-90
2022/01/01 01:39:48;;;;;;;14.88;4.32;;;10.90;99.90;;;;;;5091066;27;20071;-90
2022/01/01 01:42:14;;;;;;;10.30;4.57;;;10.90;99.90;;;;;;5091233;28;20143;-90
2022/01/01 01:44:43;;;;;;;9.60;5.07;;;10.90;99.90;;;;;;5095888;28;20039;-89
2022/01/01 01:47:15;;;;;;;26.85;6.88;;;10.90;99.90;;;;;;5059424;28;20043;-89
2022/01/01 01:49:43;;;;;;;0.50;0.50;;;10.90;99.90;;;;;;5060159;28;20040;-90
2022/01/01 01:52:09;;;;;;;6.70;3.83;;;10.90;99.90;;;;;;5060014;28;20028;-90
2022/01/01 01:54:41;;;;;;;3.97;2.20;;;10.90;99.90;;;;;;5079943;28;20085;-90
2022/01/01 01:57:09;;;;;;;12.73;6.53;;;10.90;99.90;;;;;;5101865;28;20167;-90
2022/01/01 01:59:34;;;;;;;18.08;7.72;;;10.90;99.90;;;;;;5063791;28;20036;-89
2022/01/01 02:02:00;;;;;;;11.98;5.78;;;10.90;99.90;;;;;;5072972;28;20523;-89
2022/01/01 02:04:26;;;;;;;11.55;4.90;;;10.90;99.90;;;;;;5081588;28;20567;-89
2022/01/01 02:06:52;;;;;;;18.42;6.53;;;10.90;99.90;;;;;;5097398;28;20039;-89
2022/01/01 02:09:18;;;;;;;22.25;8.15;;;10.90;99.90;;;;;;5091284;28;20091;-89
2022/01/01 02:11:43;;;;;;;23.77;9.20;;;10.80;99.90;;;;;;5069933;28;20047;-89
2022/01/01 02:14:16;;;;;;;25.52;10.52;;;10.90;99.90;;;;;;5072851;28;20480;-89
2022/01/01 02:17:07;;;;;;;32.30;12.38;;;10.80;99.90;;;;;;5073023;28;20032;-89
2022/01/01 02:19:44;;;;;;;26.08;12.60;;;10.80;99.90;;;;;;5069057;28;20032;-89
2022/01/01 02:22:11;;;;;;;8.55;4.97;;;10.80;99.90;;;;;;5069803;28;20028;-89
2022/01/01 02:24:36;;;;;;;21.52;11.10;;;10.80;99.90;;;;;;5065545;28;20125;-89
2022/01/01 02:27:02;;;;;;;11.60;6.70;;;10.80;99.90;;;;;;5064411;28;20119;-89
2022/01/01 02:29:28;;;;;;;18.63;7.72;;;11.50;99.90;;;;;;5074416;28;20043;-89
2022/01/01 02:31:53;;;;;;;21.35;9.55;;;10.80;99.90;;;;;;5075315;28;20484;-88
2022/01/01 02:34:20;;;;;;;19.08;6.93;;;10.80;99.90;;;;;;5064784;28;20032;-90
2022/01/01 02:36:46;;;;;;;34.08;13.93;;;10.70;99.90;;;;;;5079804;28;20381;-89
2022/01/01 02:39:19;;;;;;;6.28;3.90;;;10.70;99.90;;;;;;5087545;28;20416;-89
2022/01/01 02:41:46;;;;;;;19.13;7.80;;;10.70;99.90;;;;;;5059029;28;20099;-89
2022/01/01 02:44:12;;;;;;;11.07;5.80;;;10.70;99.90;;;;;;5067693;28;20561;-89
2022/01/01 02:46:38;;;;;;;26.50;14.32;;;10.70;99.90;;;;;;5094631;28;20055;-89
2022/01/01 02:49:05;;;;;;;13.82;8.40;;;10.70;99.90;;;;;;5093741;28;20043;-89
2022/01/01 02:51:30;;;;;;;10.00;6.28;;;10.60;99.90;;;;;;5115468;28;20066;-89
2022/01/01 02:53:56;;;;;;;20.88;9.20;;;10.60;99.90;;;;;;5083462;28;20373;-89
2022/01/01 02:56:23;;;;;;;22.20;10.35;;;10.60;99.90;;;;;;5066084;28;20040;-89
2022/01/01 02:58:49;;;;;;;25.05;10.35;;;10.60;99.90;;;;;;5073433;28;20038;-89
2022/01/01 03:01:14;;;;;;;28.85;11.82;;;10.60;99.90;;;;;;5098651;28;20042;-89
2022/01/01 03:03:41;;;;;;;21.48;11.32;;;10.60;99.90;;;;;;5098295;28;20035;-89
2022/01/01 03:06:07;;;;;;;26.55;15.20;;;10.50;99.90;;;;;;5098295;28;20135;-89
2022/01/01 03:08:32;;;;;;;22.50;9.57;;;10.60;99.90;;;;;;5090828;28;20067;-89
2022/01/01 03:10:58;;;;;;;23.90;12.07;;;10.60;99.90;;;;;;5081730;28;20503;-89
2022/01/01 03:13:23;;;;;;;17.70;9.77;;;10.60;99.90;;;;;;5081097;28;20065;-89
2022/01/01 03:15:49;;;;;;;13.38;8.23;;;10.60;99.90;;;;;;5086946;27;20031;-89
2022/01/01 03:18:14;;;;;;;17.90;9.43;;;10.60;99.90;;;;;;5101711;27;20035;-89
2022/01/01 03:20:40;;;;;;;37.22;16.65;;;10.70;99.90;;;;;;5102079;27;20405;-89
2022/01/01 03:23:06;;;;;;;19.77;11.52;;;10.70;99.90;;;;;;5102039;27;20035;-89
2022/01/01 03:25:31;;;;;;;26.38;12.05;;;10.80;99.90;;;;;;5099465;28;20374;-89
2022/01/01 03:27:57;;;;;;;9.95;5.65;;;10.80;99.90;;;;;;5097781;28;20040;-89
2022/01/01 03:30:23;;;;;;;29.20;13.45;;;10.70;99.90;;;;;;5098257;28;20038;-89
2022/01/01 03:32:48;;;;;;;24.70;12.02;;;10.80;99.90;;;;;;5081652;28;20517;-88
2022/01/01 03:35:14;;;;;;;12.55;6.80;;;10.80;99.90;;;;;;5081538;28;20058;-89
2022/01/01 03:37:40;;;;;;;14.85;6.68;;;10.80;99.90;;;;;;5081086;28;20130;-89
2022/01/01 03:40:06;;;;;;;13.73;2.75;;;10.80;99.90;;;;;;5081166;28;20122;-89
2022/01/01 03:42:32;;;;;;;11.80;7.13;;;10.90;99.90;;;;;;5081334;28;20050;-89
2022/01/01 03:44:58;;;;;;;8.27;4.88;;;10.80;99.90;;;;;;5098097;28;20040;-89
2022/01/01 03:47:23;;;;;;;25.60;12.40;;;10.80;99.90;;;;;;5064303;28;20089;-89
2022/01/01 03:49:51;;;;;;;24.85;13.48;;;10.80;99.90;;;;;;5084932;27;20023;-89
2022/01/01 03:52:17;;;;;;;13.48;7.40;;;10.80;99.90;;;;;;5084064;28;20041;-89
2022/01/01 03:54:43;;;;;;;12.18;5.63;;;10.80;99.90;;;;;;5069482;28;20111;-89
2022/01/01 03:57:08;;;;;;;19.38;7.82;;;10.80;99.90;;;;;;5060837;28;20043;-89
2022/01/01 03:59:34;;;;;;;19.02;11.35;;;10.90;99.90;;;;;;5061152;28;20040;-89
2022/01/01 04:01:59;;;;;;;20.65;10.85;;;10.90;99.90;;;;;;5077405;28;20071;-89
2022/01/01 04:04:26;;;;;;;17.80;9.23;;;10.90;99.90;;;;;;5060898;28;20036;-89
2022/01/01 04:06:53;;;;;;;34.85;14.80;;;10.90;99.90;;;;;;5077215;28;20528;-89
2022/01/01 04:09:18;;;;;;;37.45;16.63;;;10.90;99.90;;;;;;5066867;28;20040;-89
2022/01/01 04:11:45;;;;;;;26.98;13.38;;;10.90;99.90;;;;;;5080587;28;20465;-89
2022/01/01 04:14:15;;;;;;;6.75;4.65;;;10.90;99.90;;;;;;5083887;28;20044;-89
2022/01/01 04:16:41;;;;;;;14.20;4.65;;;10.90;99.90;;;;;;5069916;27;20122;-89
2022/01/01 04:19:07;;;;;;;15.38;8.00;;;10.90;99.90;;;;;;5100998;27;20489;-89
2022/01/01 04:21:33;;;;;;;6.78;3.10;;;10.90;99.90;;;;;;5115231;27;20096;-89
2022/01/01 04:23:58;;;;;;;18.80;8.15;;;10.90;99.90;;;;;;5080728;28;20442;-89
2022/01/01 04:26:25;;;;;;;0.57;0.57;;;10.90;99.90;;;;;;5080368;28;20101;-89
2022/01/01 04:28:50;;;;;;;16.63;7.00;;;10.90;99.90;;;;;;5080529;28;20040;-89
2022/01/01 04:31:16;;;;;;;18.23;8.82;;;10.90;99.90;;;;;;5080476;28;20044;-89
2022/01/01 04:33:43;;;;;;;11.85;6.35;;;10.90;99.90;;;;;;5080279;28;20028;-89
2022/01/01 04:36:08;;;;;;;10.00;5.10;;;10.90;99.90;;;;;;5079688;28;20523;-89
2022/01/01 04:38:39;;;;;;;16.00;9.02;;;10.90;99.90;;;;;;5080250;28;20169;-89
2022/01/01 04:41:11;;;;;;;8.52;4.80;;;10.90;99.90;;;;;;5070776;28;20044;-89
2022/01/01 04:43:38;;;;;;;28.58;13.88;;;10.90;99.90;;;;;;5060049;28;20431;-89
2022/01/01 04:46:04;;;;;;;16.38;7.72;;;11.00;99.90;;;;;;5059658;28;20431;-88
2022/01/01 04:48:29;;;;;;;19.52;8.45;;;11.00;99.90;;;;;;5076611;28;20182;-89
2022/01/01 04:50:55;;;;;;;22.48;11.05;;;11.00;99.90;;;;;;5059857;28;20039;-89
2022/01/01 04:53:20;;;;;;;27.05;7.72;;;11.00;99.90;;;;;;5076637;28;20032;-89
2022/01/01 04:55:47;;;;;;;23.80;10.55;;;11.00;99.90;;;;;;5059638;28;20043;-89
2022/01/01 04:58:13;;;;;;;20.13;6.63;;;11.20;99.90;;;;;;5059736;28;20032;-89
2022/01/01 05:00:40;;;;;;;18.63;9.70;;;11.00;99.90;;;;;;5043300;28;20036;-89
2022/01/01 05:03:05;;;;;;;24.65;9.73;;;11.00;99.90;;;;;;5059424;28;20047;-89
2022/01/01 05:05:31;;;;;;;24.08;12.07;;;11.00;99.90;;;;;;5059624;28;20044;-89
2022/01/01 05:07:56;;;;;;;22.42;7.80;;;11.10;99.90;;;;;;5059169;28;20511;-89
2022/01/01 05:10:24;;;;;;;30.23;12.70;;;11.10;99.90;;;;;;5059378;28;20394;-89
2022/01/01 05:12:53;;;;;;;15.70;6.93;;;11.00;99.90;;;;;;5059441;28;20068;-89
2022/01/01 05:15:19;;;;;;;6.22;3.90;;;11.10;99.90;;;;;;5059399;28;20124;-89
2022/01/01 05:17:44;;;;;;;10.27;4.95;;;11.10;99.90;;;;;;5076128;28;20515;-88
2022/01/01 05:20:10;;;;;;;12.95;6.43;;;11.10;99.90;;;;;;5059546;28;20036;-89
2022/01/01 05:22:36;;;;;;;25.33;8.65;;;11.10;99.90;;;;;;5076335;28;20643;-89
2022/01/01 05:25:01;;;;;;;9.13;4.63;;;11.10;99.90;;;;;;5059171;28;20035;-89
2022/01/01 05:27:27;;;;;;;9.25;4.45;;;11.10;99.90;;;;;;5058795;28;20040;-89
2022/01/01 05:29:53;;;;;;;4.78;3.17;;;11.10;99.90;;;;;;5058770;28;20124;-89
2022/01/01 05:32:19;;;;;;;19.85;5.18;;;11.10;99.90;;;;;;5059176;28;20043;-89
2022/01/01 05:34:45;;;;;;;8.73;3.60;;;11.10;99.90;;;;;;5059125;28;20036;-89
2022/01/01 05:37:11;;;;;;;4.15;3.00;;;11.20;99.90;;;;;;5071225;28;20050;-89
2022/01/01 05:39:37;;;;;;;3.38;1.55;;;11.10;99.90;;;;;;5078946;28;20035;-89
2022/01/01 05:42:02;;;;;;;17.75;7.00;;;11.20;99.90;;;;;;5078982;28;20508;-89
2022/01/01 05:44:28;;;;;;;12.25;3.85;;;11.20;99.90;;;;;;5096051;28;20040;-89
2022/01/01 05:46:54;;;;;;;4.07;2.13;;;11.50;99.90;;;;;;5078575;28;20045;-89
2022/01/01 05:49:20;;;;;;;15.73;6.53;;;11.20;99.90;;;;;;5079159;28;20043;-89
2022/01/01 05:51:46;;;;;;;5.68;2.88;;;11.20;99.90;;;;;;5078789;28;20485;-89
2022/01/01 05:54:12;;;;;;;19.17;6.20;;;11.20;99.90;;;;;;5095584;28;20050;-89
2022/01/01 05:56:38;;;;;;;5.50;2.22;;;11.20;99.90;;;;;;5078578;28;20070;-89
2022/01/01 05:59:03;;;;;;;15.75;4.05;;;11.20;99.90;;;;;;5079220;28;20066;-89
2022/01/01 06:01:29;;;;;;;8.57;3.67;;;11.20;99.90;;;;;;5062264;28;20066;-89
2022/01/01 06:03:54;;;;;;;8.50;3.25;;;11.30;99.90;;;;;;5058985;28;20036;-89
2022/01/01 06:06:20;;;;;;;6.85;2.15;;;11.30;99.90;;;;;;5058611;28;20408;-89
2022/01/01 06:08:46;;;;;;;7.63;2.15;;;11.20;99.90;;;;;;5058702;28;20481;-89
2022/01/01 06:11:11;;;;;;;5.15;3.05;;;11.20;99.90;;;;;;5058568;28;20127;-89
2022/01/01 06:13:37;;;;;;;3.05;2.20;;;11.30;99.90;;;;;;5068990;28;20492;-89
2022/01/01 06:16:03;;;;;;;11.18;4.97;;;11.20;99.90;;;;;;5078482;28;20039;-89
2022/01/01 06:18:28;;;;;;;6.00;3.38;;;11.30;99.90;;;;;;5078762;28;20067;-89
2022/01/01 06:20:54;;;;;;;0.73;0.73;;;11.30;99.90;;;;;;5078843;28;20044;-90
2022/01/01 06:23:20;;;;;;;5.95;2.50;;;11.30;99.90;;;;;;5079188;28;20035;-88
2022/01/01 06:25:45;;;;;;;49.70;5.25;;;11.30;99.90;;;;;;5078854;28;20054;-90
2022/01/01 06:28:11;;;;;;;3.20;1.50;;;11.30;99.90;;;;;;5078587;28;20489;-90
2022/01/01 06:30:37;;;;;;;4.13;2.05;;;11.30;99.90;;;;;;5095703;28;20039;-89
2022/01/01 06:33:14;;;;;;;3.60;1.83;;;11.30;99.90;;;;;;5079015;28;20043;-89
2022/01/01 06:35:41;;;;;;;0.80;0.75;;;11.30;99.90;;;;;;5078856;28;20096;-89
2022/01/01 06:38:07;;;;;;;7.22;1.90;;;11.30;99.90;;;;;;5095158;28;20050;-89
2022/01/01 06:40:33;;;;;;;4.10;1.63;;;11.30;99.90;;;;;;5078537;28;20039;-89
2022/01/01 06:42:59;;;;;;;15.98;2.60;;;11.30;99.90;;;;;;5080385;28;20043;-89
2022/01/01 06:45:24;;;;;;;2.63;1.95;;;11.30;99.90;;;;;;5082355;28;20043;-89
2022/01/01 06:47:50;;;;;;;0.88;0.68;;;11.30;99.90;;;;;;5081697;28;20065;-88
2022/01/01 06:50:16;;;;;;;12.75;2.15;;;11.30;99.90;;;;;;5099362;28;20035;-88
2022/01/01 06:52:45;;;;;;;7.18;3.25;;;11.20;99.90;;;;;;5065365;28;20091;-88
2022/01/01 06:55:12;;;;;;;3.45;1.20;;;11.30;99.90;;;;;;5082181;28;20127;-89
2022/01/01 06:57:42;;;;;;;7.95;5.55;;;11.30;99.90;;;;;;5081776;28;20055;-89
2022/01/01 07:00:09;;;;;;;8.23;2.90;;;11.30;99.90;;;;;;5081863;28;20043;-89
2022/01/01 07:02:43;;;;;;;9.95;3.65;;;11.30;99.90;;;;;;5091026;28;20052;-89
2022/01/01 07:05:09;;;;;;;10.85;3.00;;;11.30;99.90;;;;;;5095059;28;20036;-89
2022/01/01 07:07:35;;;;;;;5.68;2.95;;;11.30;99.90;;;;;;5097532;28;20088;-89
2022/01/01 07:10:05;;;;;;;8.95;3.83;;;11.30;99.90;;;;;;5097967;28;20035;-88
2022/01/01 07:12:31;;;;;;;8.75;3.28;;;11.30;99.90;;;;;;5074038;28;20040;-89
2022/01/01 07:14:56;;;;;;;3.08;1.50;;;11.30;99.90;;;;;;5071604;28;20036;-88
2022/01/01 07:17:22;;;;;;;8.35;2.22;;;11.30;99.90;;;;;;5080720;28;20489;-89
2022/01/01 07:19:48;;;;;;;3.72;1.92;;;11.40;99.90;;;;;;5062779;28;20040;-89
2022/01/01 07:22:13;;;;;;;12.10;6.18;;;11.40;99.90;;;;;;5077670;28;20453;-89
2022/01/01 07:24:39;;;;;;;5.13;2.90;;;11.40;99.90;;;;;;5085657;28;20043;-89
2022/01/01 07:27:05;;;;;;;6.45;3.30;;;11.40;99.90;;;;;;5080832;28;20040;-89
2022/01/01 07:29:31;;;;;;;13.27;4.22;;;11.40;99.90;;;;;;5080952;28;20122;-89
2022/01/01 07:31:56;;;;;;;9.48;3.13;;;11.40;99.90;;;;;;5081284;28;20031;-89
2022/01/01 07:34:22;;;;;;;6.90;2.45;;;11.40;99.90;;;;;;5068371;28;20039;-89
2022/01/01 07:36:49;;;;;;;9.10;5.03;;;11.40;99.90;;;;;;5070798;28;20551;-89
2022/01/01 07:39:15;;;;;;;4.03;2.03;;;11.40;99.90;;;;;;5064607;28;20501;-89
2022/01/01 07:41:40;;;;;;;17.30;1.80;;;11.50;99.90;;;;;;5060614;28;20040;-89
2022/01/01 07:44:06;;;;;;;18.85;4.25;;;11.50;99.90;;;;;;5060559;28;20043;-89
2022/01/01 07:46:32;;;;;;;5.88;2.10;;;11.50;99.90;;;;;;5071506;28;20040;-89
2022/01/01 07:48:58;;;;;;;4.85;2.97;;;11.60;99.90;;;;;;5080467;28;20100;-89
2022/01/01 07:51:24;;;;;;;5.07;2.97;;;11.50;99.90;;;;;;5080406;28;20047;-88
2022/01/01 07:53:49;;;;;;;10.05;3.85;;;11.60;99.90;;;;;;5079984;28;20066;-89
2022/01/01 07:56:15;;;;;;;12.63;4.00;;;11.60;99.90;;;;;;5080111;28;20488;-89
2022/01/01 07:58:41;;;;;;;10.75;4.75;;;11.60;99.90;;;;;;5075746;28;20032;-89
2022/01/01 08:01:06;;;;;;;31.42;4.93;;;11.60;99.90;;;;;;5072173;28;20117;-89
2022/01/01 08:03:32;;;;;;;6.90;4.35;;;11.70;99.90;;;;;;5076112;28;20173;-89
2022/01/01 08:05:57;;;;;;;4.47;2.30;;;11.70;99.90;;;;;;5060460;28;20189;-89
2022/01/01 08:08:23;;;;;;;15.02;4.95;;;11.70;99.90;;;;;;5091127;28;20532;-89
2022/01/01 08:10:49;;;;;;;15.00;5.18;;;11.70;99.90;;;;;;5080440;28;20135;-89
2022/01/01 08:13:22;;;;;;;16.17;3.97;;;11.70;99.90;;;;;;5062372;28;20040;-89
2022/01/01 08:15:49;;;;;;;9.82;3.60;;;11.70;99.90;;;;;;5075027;28;20051;-89
2022/01/01 08:18:15;;;;;;;4.13;2.40;;;11.70;99.90;;;;;;5076530;28;20130;-89
2022/01/01 08:20:40;;;;;;;10.32;5.00;;;11.70;99.90;;;;;;5059811;28;20056;-89
2022/01/01 08:23:06;;;;;;;5.38;2.63;;;11.80;99.90;;;;;;5060059;28;20043;-89
2022/01/01 08:25:32;;;;;;;9.18;4.75;;;11.80;99.90;;;;;;5067236;28;20070;-89
2022/01/01 08:27:57;;;;;;;8.80;2.85;;;11.80;99.90;;;;;;5059891;28;20040;-89
2022/01/01 08:30:23;;;;;;;11.27;4.10;;;11.80;99.90;;;;;;5076451;28;20504;-89
2022/01/01 08:32:48;;;;;;;7.40;3.15;;;11.80;99.90;;;;;;5076258;28;20036;-89
2022/01/01 08:35:14;;;;;;;3.15;1.92;;;11.80;99.90;;;;;;5059658;28;20396;-89
2022/01/01 08:37:40;;;;;;;17.70;4.40;;;11.80;99.90;;;;;;5063820;28;20043;-89
2022/01/01 08:40:06;;;;;;;14.45;2.85;;;11.80;99.90;;;;;;5071986;28;20416;-89
2022/01/01 08:42:32;;;;;;;3.33;2.08;;;11.80;99.90;;;;;;5059459;28;20047;-89
2022/01/01 08:44:57;;;;;;;9.60;4.63;;;11.80;99.90;;;;;;5059491;28;20043;-89
2022/01/01 08:47:25;;;;;;;9.80;3.72;;;11.90;99.90;;;;;;5059033;28;20043;-89
2022/01/01 08:49:54;;;;;;;18.58;3.90;;;11.90;99.90;;;;;;5067427;28;20028;-89
2022/01/01 08:52:20;;;;;;;17.15;5.78;;;11.90;99.90;;;;;;5067687;28;20077;-89
2022/01/01 08:54:45;;;;;;;1.52;1.10;;;12.00;99.90;;;;;;5069285;28;20542;-89
2022/01/01 08:57:11;;;;;;;13.52;5.68;;;12.00;99.90;;;;;;5079244;28;20043;-89
2022/01/01 08:59:37;;;;;;;14.38;6.18;;;12.00;99.90;;;;;;5079650;28;20039;-89
2022/01/01 09:02:03;;;;;;;8.95;4.32;;;12.00;99.90;;;;;;5079175;28;20035;-89
2022/01/01 09:04:29;;;;;;;4.93;2.45;;;12.00;99.90;;;;;;5078775;28;20071;-89
2022/01/01 09:06:54;;;;;;;7.35;2.22;;;12.00;99.90;;;;;;5078260;28;20081;-89
2022/01/01 09:09:20;;;;;;;8.95;2.92;;;12.00;99.90;;;;;;5078705;28;20046;-89
2022/01/01 09:11:45;;;;;;;10.13;3.85;;;12.00;99.90;;;;;;5068964;28;20067;-89
2022/01/01 09:14:12;;;;;;;7.68;3.25;;;12.00;99.90;;;;;;5072258;28;20119;-89
2022/01/01 09:16:37;;;;;;;4.25;2.00;;;12.10;99.90;;;;;;5078514;28;20040;-89
2022/01/01 09:19:05;;;;;;;12.63;5.40;;;12.10;99.90;;;;;;5079349;28;20036;-90
2022/01/01 09:21:31;;;;;;;10.07;3.10;;;12.10;99.90;;;;;;5078725;28;20035;-89
2022/01/01 09:23:57;;;;;;;11.50;3.58;;;12.10;99.90;;;;;;5089439;28;20063;-90
2022/01/01 09:26:23;;;;;;;7.68;3.42;;;12.20;99.90;;;;;;5058335;28;20048;-89
2022/01/01 09:28:49;;;;;;;8.65;3.83;;;12.20;99.90;;;;;;5077196;28;20051;-89
2022/01/01 09:31:15;;;;;;;10.43;3.42;;;12.20;99.90;;;;;;5078735;28;20039;-89
2022/01/01 09:33:41;;;;;;;4.05;2.63;;;12.30;99.90;;;;;;5078762;28;20054;-89
2022/01/01 09:36:09;;;;;;;6.10;2.17;;;12.30;99.90;;;;;;5065818;28;20389;-89
2022/01/01 09:38:35;;;;;;;3.85;2.17;;;12.30;99.90;;;;;;5061781;28;20044;-89
2022/01/01 09:41:02;;;;;;;9.70;2.38;;;12.30;99.90;;;;;;5058514;28;20678;-89
2022/01/01 09:43:29;;;;;;;7.25;2.50;;;12.30;99.90;;;;;;5058434;28;20040;-89
2022/01/01 09:45:56;;;;;;;9.38;3.35;;;12.30;99.90;;;;;;5086729;28;20040;-89
2022/01/01 09:48:24;;;;;;;8.48;3.47;;;12.40;99.90;;;;;;5071193;28;20036;-89
2022/01/01 09:50:54;;;;;;;5.05;2.50;;;12.40;99.90;;;;;;5058424;28;20074;-89
2022/01/01 09:53:22;;;;;;;5.22;2.47;;;12.40;99.90;;;;;;5058101;28;20473;-89
2022/01/01 09:55:48;;;;;;;7.28;3.40;;;12.40;99.90;;;;;;5058401;28;20097;-89
2022/01/01 09:58:13;;;;;;;13.02;2.15;;;12.40;99.90;;;;;;5063623;28;20036;-89
2022/01/01 10:00:39;;;;;;;5.88;2.60;;;12.40;99.90;;;;;;5073191;28;20036;-89
2022/01/01 10:03:05;;;;;;;4.28;2.33;;;12.40;99.90;;;;;;5061197;28;20060;-89
2022/01/01 10:05:30;;;;;;;4.38;2.53;;;12.40;99.90;;;;;;5058021;28;20048;-88
2022/01/01 10:08:00;;;;;;;10.60;2.30;;;12.40;99.90;;;;;;5074261;28;20048;-89
2022/01/01 10:10:26;;;;;;;2.80;1.30;;;12.40;99.90;;;;;;5058094;28;20047;-89
2022/01/01 10:12:52;;;;;;;4.45;2.05;;;12.40;99.90;;;;;;5074678;28;20040;-88
2022/01/01 10:15:18;;;;;;;1.65;0.80;;;12.30;99.90;;;;;;5074625;28;20036;-88
2022/01/01 10:17:46;;;;;;;0.88;0.88;;;12.40;99.90;;;;;;5060877;28;20393;-89
2022/01/01 10:20:11;;;;;;;14.90;2.90;;;12.30;99.90;;;;;;5062304;28;20044;-89
2022/01/01 10:22:38;;;;;;;4.40;1.73;;;12.30;99.90;;;;;;5078903;28;20478;-89
2022/01/01 10:28:03;;;;;;;2.95;1.48;;;12.30;99.90;;;;;;5078135;28;20105;-89
2022/01/01 10:30:31;;;;;;;3.10;1.65;;;12.30;99.90;;;;;;5061912;28;20039;-89
2022/01/01 10:33:07;;;;;;;1.88;1.02;;;12.30;99.90;;;;;;5078700;28;20132;-89
2022/01/01 10:35:53;;;;;;;2.90;1.60;;;12.30;99.90;;;;;;5061821;28;20040;-89
2022/01/01 10:38:26;;;;;;;8.65;1.65;;;12.30;99.90;;;;;;5076546;28;20516;-89
2022/01/01 10:41:06;;;;;;;1.85;1.02;;;12.30;99.90;;;;;;5081532;28;20039;-89
2022/01/01 10:43:40;;;;;;;2.58;1.40;;;12.30;99.90;;;;;;5066964;28;20047;-89
2022/01/01 10:46:09;;;;;;;8.55;0.90;;;12.30;99.90;;;;;;5081185;28;20127;-89
2022/01/01 10:51:07;;;;;;;2.72;1.55;;;12.30;99.90;;;;;;5095953;28;20043;-89
2022/01/01 10:53:34;;;;;;;0.60;0.50;;;12.30;99.90;;;;;;5081498;28;20032;-89
2022/01/01 10:56:01;;;;;;;7.43;0.85;;;12.30;99.90;;;;;;5076821;28;20097;-88
2022/01/01 10:58:31;;;;;;;2.15;0.82;;;12.30;99.90;;;;;;5061244;28;20040;-89
2022/01/01 11:01:02;;;;;;;3.05;1.20;;;12.30;99.90;;;;;;5061390;28;20044;-89
2022/01/01 11:03:28;;;;;;;6.53;0.55;;;12.30;99.90;;;;;;5061153;28;20062;-89
2022/01/01 11:06:17;;;;;;;2.35;1.50;;;12.30;99.90;;;;;;5062599;28;20062;-87
2022/01/01 11:08:45;;;;;;;2.22;1.27;;;12.40;99.90;;;;;;5061166;28;20048;-88
2022/01/01 11:11:31;;;;;;;1.27;0.60;;;12.40;99.90;;;;;;5083158;28;20032;-89
2022/01/01 11:13:57;;;;;;;;;;;12.40;99.90;;;;;;5064597;28;20032;-88
2022/01/01 11:16:23;;;;;;;2.63;1.58;;;12.40;99.90;;;;;;5065152;28;19985;-89
2022/01/01 11:18:49;;;;;;;2.33;0.88;;;12.40;99.90;;;;;;5060739;28;20478;-89
2022/01/01 11:21:15;;;;;;;0.17;0.17;;;12.40;99.90;;;;;;5068785;28;20047;-89
2022/01/01 11:23:41;;;;;;;9.90;2.80;;;12.50;99.90;;;;;;5080920;28;20040;-88
2022/01/01 11:26:08;;;;;;;1.27;1.02;;;12.50;99.90;;;;;;5066377;28;20118;-89
2022/01/01 11:28:36;;;;;;;5.15;1.58;;;12.50;99.90;;;;;;5059571;28;20108;-89
2022/01/01 11:31:10;;;;;;;3.15;1.23;;;12.50;99.90;;;;;;5060523;28;20047;-89
2022/01/01 11:33:43;;;;;;;4.60;1.33;;;12.60;99.90;;;;;;5060238;28;20047;-89
2022/01/01 11:36:18;;;;;;;1.23;0.80;;;12.60;99.90;;;;;;5061690;28;20040;-89
2022/01/01 11:38:44;;;;;;;3.10;1.92;;;12.60;99.90;;;;;;5092953;28;20039;-89
2022/01/01 11:41:12;;;;;;;1.70;1.08;;;12.70;99.90;;;;;;5077111;28;20450;-89
2022/01/01 11:43:53;;;;;;;1.45;1.10;;;12.70;99.90;;;;;;5077043;28;20040;-89
2022/01/01 11:46:27;;;;;;;5.30;1.50;;;12.70;99.90;;;;;;5079795;28;20044;-88
2022/01/01 11:49:03;;;;;;;16.80;3.15;;;12.80;99.90;;;;;;5076409;28;20142;-89
2022/01/01 11:51:50;;;;;;;2.55;1.15;;;12.80;99.90;;;;;;5060194;28;20032;-89
2022/01/01 11:54:20;;;;;;;5.60;2.38;;;12.80;99.90;;;;;;5059523;28;20043;-89
2022/01/01 11:56:49;;;;;;;7.70;1.67;;;12.80;99.90;;;;;;5059372;28;20036;-89
2022/01/01 11:59:44;;;;;;;5.97;1.35;;;12.80;99.90;;;;;;5064620;28;20574;-89
2022/01/01 12:02:19;;;;;;;2.15;1.15;;;12.80;99.90;;;;;;5062396;28;20055;-89
2022/01/01 12:04:53;;;;;;;2.63;1.42;;;12.80;99.90;;;;;;5079407;28;20497;-89
2022/01/01 12:07:19;;;;;;;6.35;2.05;;;12.80;99.90;;;;;;5061328;27;20040;-88
2022/01/01 12:10:06;;;;;;;1.60;0.93;;;12.80;99.90;;;;;;5068037;28;20105;-89
2022/01/01 12:12:45;;;;;;;4.82;1.30;;;12.80;99.90;;;;;;5060553;27;20044;-90
2022/01/01 12:15:16;;;;;;;3.72;2.13;;;12.80;99.90;;;;;;5060920;28;20040;-89
2022/01/01 12:17:49;;;;;;;3.58;1.52;;;12.70;99.90;;;;;;5084126;28;20039;-88
2022/01/01 12:20:28;;;;;;;2.15;1.05;;;12.70;99.90;;;;;;5085840;28;20580;-89
2022/01/01 12:22:54;;;;;;;1.75;0.93;;;12.80;99.90;;;;;;5085138;28;20044;-89
2022/01/01 12:25:26;;;;;;;3.05;1.65;;;12.80;99.90;;;;;;5064238;28;20413;-89
2022/01/01 12:27:53;;;;;;;2.55;1.10;;;12.80;99.90;;;;;;5094836;28;20404;-89
2022/01/01 12:30:38;;;;;;;8.52;4.78;;;12.80;99.90;;;;;;5067818;28;20036;-89
2022/01/01 12:33:05;;;;;;;5.07;1.75;;;12.80;99.90;;;;;;5062593;28;20493;-88
2022/01/01 12:35:47;;;;;;;7.07;0.88;;;12.80;99.90;;;;;;5062695;28;20036;-87
2022/01/01 12:38:19;;;;;;;1.40;0.75;;;12.80;99.90;;;;;;5061775;28;20063;-87
2022/01/01 12:40:55;;;;;;;3.97;1.38;;;12.90;99.90;;;;;;5073998;28;20032;-87
2022/01/01 12:43:21;;;;;;;3.47;1.13;;;12.90;99.90;;;;;;5058823;28;20036;-87
2022/01/01 12:45:52;;;;;;;2.17;1.35;;;12.90;99.90;;;;;;5070917;28;20135;-87
2022/01/01 12:48:37;;;;;;;1.08;0.63;;;13.00;99.90;;;;;;5088127;28;20036;-87
2022/01/01 12:51:05;;;;;;;1.55;0.88;;;13.00;99.90;;;;;;5076417;28;20039;-88